createdAt,value
2019-05-26T00:00:43.464Z,100995.91
2019-05-26T00:03:13.694Z,100992.80
2019-05-26T00:05:43.091Z,100990.06
2019-05-26T00:08:12.325Z,100997.52
2019-05-26T00:10:41.593Z,101005.46
2019-05-26T00:13:10.817Z,100996.61
2019-05-26T00:15:39.992Z,101000.70
2019-05-26T00:18:09.222Z,100995.19
2019-05-26T00:20:38.410Z,100995.25
2019-05-26T00:23:07.660Z,100990.75
2019-05-26T00:25:36.864Z,100998.37
2019-05-26T00:28:06.306Z,101003.81
2019-05-26T00:30:35.500Z,101002.23
2019-05-26T00:33:04.795Z,101005.48
2019-05-26T00:35:34.010Z,101004.14
2019-05-26T00:38:03.234Z,101002.87
2019-05-26T00:40:32.461Z,101001.22
2019-05-26T00:43:01.748Z,101003.37
2019-05-26T00:45:31.127Z,100998.12
2019-05-26T00:48:00.382Z,101003.80
2019-05-26T00:50:29.597Z,101006.48
2019-05-26T00:52:58.789Z,101006.16
2019-05-26T00:55:28.090Z,101006.53
2019-05-26T00:57:57.300Z,101011.16
2019-05-26T01:00:38.088Z,101005.47
2019-05-26T01:03:07.447Z,101006.66
2019-05-26T01:05:36.610Z,100998.39
2019-05-26T01:08:06.917Z,101000.13
2019-05-26T01:10:36.402Z,100999.25
2019-05-26T01:13:05.721Z,100997.07
2019-05-26T01:15:35.977Z,100998.91
2019-05-26T01:18:05.414Z,100993.59
2019-05-26T01:20:34.617Z,100985.44
2019-05-26T01:23:03.880Z,100988.73
2019-05-26T01:25:33.164Z,100987.81
2019-05-26T01:28:02.411Z,100982.95
2019-05-26T01:30:35.140Z,100992.75
2019-05-26T01:33:05.214Z,100979.43
2019-05-26T01:35:35.138Z,100987.47
2019-05-26T01:38:04.434Z,100980.44
2019-05-26T01:40:37.416Z,100977.77
2019-05-26T01:43:06.582Z,100979.48
2019-05-26T01:45:35.712Z,100979.32
2019-05-26T01:48:06.316Z,100975.86
2019-05-26T01:50:35.659Z,100977.58
2019-05-26T01:53:05.138Z,100971.88
2019-05-26T01:55:34.381Z,100974.48
2019-05-26T01:58:03.717Z,100969.80
2019-05-26T02:00:32.925Z,100973.22
2019-05-26T02:03:02.121Z,100973.16
2019-05-26T02:05:32.411Z,100970.44
2019-05-26T02:08:01.621Z,100976.72
2019-05-26T02:10:30.834Z,100975.03
2019-05-26T02:13:00.120Z,100970.49
2019-05-26T02:15:29.355Z,100978.39
2019-05-26T02:17:58.606Z,100982.78
2019-05-26T02:20:27.868Z,100980.98
2019-05-26T02:22:56.993Z,100977.05
2019-05-26T02:25:26.250Z,100981.94
2019-05-26T02:27:55.617Z,100974.43
2019-05-26T02:30:24.794Z,100974.88
2019-05-26T02:32:53.937Z,100973.16
2019-05-26T02:35:23.266Z,100974.06
2019-05-26T02:37:52.470Z,100972.67
2019-05-26T02:40:21.872Z,100968.17
2019-05-26T02:42:51.191Z,100969.59
2019-05-26T02:45:22.634Z,100975.84
2019-05-26T02:47:51.812Z,100969.56
2019-05-26T02:50:20.951Z,100975.34
2019-05-26T02:52:50.193Z,100974.06
2019-05-26T02:55:19.638Z,100969.26
2019-05-26T02:57:48.830Z,100972.74
2019-05-26T03:00:24.487Z,100972.69
2019-05-26T03:02:53.723Z,100966.16
2019-05-26T03:05:23.208Z,100961.80
2019-05-26T03:07:52.380Z,100964.93
2019-05-26T03:10:21.625Z,100972.81
2019-05-26T03:12:50.740Z,100967.06
2019-05-26T03:15:20.118Z,100971.52
2019-05-26T03:17:49.854Z,100975.38
2019-05-26T03:20:19.109Z,100973.25
2019-05-26T03:22:49.019Z,100969.70
2019-05-26T03:25:18.302Z,100972.28
2019-05-26T03:27:47.526Z,100976.34
2019-05-26T03:30:16.750Z,100976.77
2019-05-26T03:32:45.942Z,100978.12
2019-05-26T03:35:15.179Z,100974.98
2019-05-26T03:37:44.481Z,100969.28
2019-05-26T03:40:13.932Z,100971.02
2019-05-26T03:42:43.070Z,100969.66
2019-05-26T03:45:13.756Z,100970.47
2019-05-26T03:47:42.902Z,100980.62
2019-05-26T03:50:12.077Z,100972.76
2019-05-26T03:52:41.293Z,100966.48
2019-05-26T03:55:10.648Z,100963.42
2019-05-26T03:57:39.822Z,100963.42
2019-05-26T04:00:09.004Z,100964.28
2019-05-26T04:02:38.199Z,100958.14
2019-05-26T04:05:07.992Z,100958.58
2019-05-26T04:07:37.132Z,100960.34
2019-05-26T04:10:06.605Z,100966.46
2019-05-26T04:12:35.850Z,100965.45
2019-05-26T04:15:05.370Z,100962.44
2019-05-26T04:17:34.593Z,100963.48
2019-05-26T04:20:04.021Z,100966.88
2019-05-26T04:22:33.248Z,100970.35
2019-05-26T04:25:02.539Z,100964.44
2019-05-26T04:27:31.820Z,100963.22
2019-05-26T04:30:00.915Z,100962.91
2019-05-26T04:32:30.279Z,100962.91
2019-05-26T04:34:59.420Z,100954.42
2019-05-26T04:37:28.693Z,100959.27
2019-05-26T04:39:57.890Z,100954.00
2019-05-26T04:42:27.038Z,100956.08
2019-05-26T04:44:56.215Z,100950.30
2019-05-26T04:47:25.401Z,100954.12
2019-05-26T04:49:54.621Z,100947.55
2019-05-26T04:52:23.841Z,100954.58
2019-05-26T04:54:53.827Z,100953.16
2019-05-26T04:57:22.941Z,100954.48
2019-05-26T04:59:52.143Z,100952.25
2019-05-26T05:02:21.293Z,100956.69
2019-05-26T05:04:50.434Z,100957.45
2019-05-26T05:07:19.571Z,100952.61
2019-05-26T05:09:48.797Z,100960.55
2019-05-26T05:12:18.118Z,100955.49
2019-05-26T05:14:47.350Z,100955.99
2019-05-26T05:17:16.766Z,100953.02
2019-05-26T05:19:45.920Z,100960.88
2019-05-26T05:22:15.159Z,100962.91
2019-05-26T05:24:44.473Z,100952.23
2019-05-26T05:27:13.667Z,100954.84
2019-05-26T05:29:42.928Z,100946.94
2019-05-26T05:32:12.088Z,100947.32
2019-05-26T05:34:41.234Z,100939.48
2019-05-26T05:37:10.377Z,100941.97
2019-05-26T05:39:39.509Z,100946.11
2019-05-26T05:42:08.700Z,100949.64
2019-05-26T05:44:37.836Z,100946.52
2019-05-26T05:47:07.044Z,100939.20
2019-05-26T05:49:36.348Z,100937.50
2019-05-26T05:52:05.642Z,100942.80
2019-05-26T05:54:34.807Z,100939.80
2019-05-26T05:57:04.145Z,100934.28
2019-05-26T05:59:33.399Z,100939.98
2019-05-26T06:02:02.662Z,100932.40
2019-05-26T06:04:31.853Z,100935.45
2019-05-26T06:07:01.011Z,100930.44
2019-05-26T06:09:30.454Z,100921.17
2019-05-26T06:11:59.686Z,100921.46
2019-05-26T06:14:28.931Z,100922.88
2019-05-26T06:16:58.228Z,100919.44
2019-05-26T06:19:27.419Z,100921.95
2019-05-26T06:21:56.595Z,100922.11
2019-05-26T06:24:25.793Z,100921.31
2019-05-26T06:26:55.071Z,100918.22
2019-05-26T06:29:24.251Z,100913.44
2019-05-26T06:31:53.616Z,100918.81
2019-05-26T06:34:22.911Z,100909.48
2019-05-26T06:36:52.056Z,100913.15
2019-05-26T06:39:21.222Z,100917.92
2019-05-26T06:41:50.337Z,100913.30
2019-05-26T06:44:19.486Z,100910.14
2019-05-26T06:46:48.595Z,100903.39
2019-05-26T06:49:17.726Z,100896.14
2019-05-26T06:51:46.942Z,100893.59
2019-05-26T06:54:16.119Z,100893.77
2019-05-26T06:56:45.243Z,100891.84
2019-05-26T06:59:14.574Z,100886.95
2019-05-26T07:01:43.676Z,100888.56
2019-05-26T07:04:12.839Z,100888.02
2019-05-26T07:06:41.957Z,100890.50
2019-05-26T07:09:11.127Z,100882.14
2019-05-26T07:11:53.960Z,100882.34
2019-05-26T07:14:11.113Z,100891.42
2019-05-26T07:16:40.281Z,100893.92
2019-05-26T07:19:09.452Z,100890.05
2019-05-26T07:21:38.650Z,100890.39
2019-05-26T07:24:07.795Z,100892.25
2019-05-26T07:26:38.100Z,100883.02
2019-05-26T07:29:07.246Z,100891.31
2019-05-26T07:31:36.371Z,100886.00
2019-05-26T07:34:05.520Z,100883.75
2019-05-26T07:36:34.693Z,100888.16
2019-05-26T07:39:04.891Z,100881.59
2019-05-26T07:41:34.048Z,100872.47
2019-05-26T07:44:03.240Z,100882.20
2019-05-26T07:46:32.486Z,100882.53
2019-05-26T07:49:01.637Z,100881.30
2019-05-26T07:51:30.824Z,100871.58
2019-05-26T07:54:00.081Z,100886.02
2019-05-26T07:56:29.195Z,100881.37
2019-05-26T07:58:58.346Z,100888.00
2019-05-26T08:01:35.808Z,100891.11
2019-05-26T08:03:59.343Z,100892.13
2019-05-26T08:06:28.536Z,100892.39
2019-05-26T08:08:57.742Z,100896.83
2019-05-26T08:11:27.835Z,100894.03
2019-05-26T08:13:57.079Z,100899.42
2019-05-26T08:16:26.221Z,100883.63
2019-05-26T08:18:55.419Z,100880.13
2019-05-26T08:21:24.584Z,100876.22
2019-05-26T08:23:53.777Z,100873.08
2019-05-26T08:26:22.986Z,100872.70
2019-05-26T08:28:53.820Z,100878.47
2019-05-26T08:31:23.201Z,100884.17
2019-05-26T08:33:52.361Z,100877.98
2019-05-26T08:36:21.643Z,100877.55
2019-05-26T08:38:50.982Z,100881.63
2019-05-26T08:41:20.101Z,100884.59
2019-05-26T08:43:49.261Z,100874.07
2019-05-26T08:46:18.481Z,100881.07
2019-05-26T08:48:47.631Z,100867.50
2019-05-26T08:51:16.894Z,100878.15
2019-05-26T08:53:46.116Z,100875.89
2019-05-26T08:56:15.241Z,100862.41
2019-05-26T08:58:44.366Z,100854.95
2019-05-26T09:01:13.579Z,100860.84
2019-05-26T09:03:42.782Z,100857.55
2019-05-26T09:06:11.935Z,100866.77
2019-05-26T09:08:41.080Z,100864.48
2019-05-26T09:11:10.257Z,100863.90
2019-05-26T09:13:39.367Z,100854.84
2019-05-26T09:16:08.506Z,100864.05
2019-05-26T09:18:37.600Z,100852.75
2019-05-26T09:21:06.795Z,100861.41
2019-05-26T09:23:35.928Z,100858.38
2019-05-26T09:26:05.151Z,100865.09
2019-05-26T09:28:34.314Z,100856.09
2019-05-26T09:31:03.482Z,100849.67
2019-05-26T09:33:32.754Z,100851.51
2019-05-26T09:36:01.859Z,100846.31
2019-05-26T09:38:31.102Z,100843.81
2019-05-26T09:41:00.304Z,100852.24
2019-05-26T09:43:29.597Z,100847.17
2019-05-26T09:45:59.804Z,100850.91
2019-05-26T09:48:30.408Z,100845.16
2019-05-26T09:51:00.990Z,100844.88
2019-05-26T09:53:31.180Z,100845.16
2019-05-26T09:56:00.347Z,100832.61
2019-05-26T09:58:29.518Z,100831.17
2019-05-26T10:00:58.613Z,100828.66
2019-05-26T10:03:27.786Z,100827.44
2019-05-26T10:05:58.097Z,100825.02
2019-05-26T10:08:27.375Z,100823.13
2019-05-26T10:10:56.668Z,100825.41
2019-05-26T10:13:31.838Z,100840.05
2019-05-26T10:15:56.833Z,100833.44
2019-05-26T10:18:27.059Z,100836.58
2019-05-26T10:20:57.305Z,100829.96
2019-05-26T10:23:26.609Z,100819.39
2019-05-26T10:25:56.002Z,100834.13
2019-05-26T10:28:25.302Z,100829.38
2019-05-26T10:30:55.546Z,100825.42
2019-05-26T10:33:24.710Z,100813.37
2019-05-26T10:35:53.915Z,100806.41
2019-05-26T10:38:23.047Z,100812.20
2019-05-26T10:40:52.246Z,100817.96
2019-05-26T10:43:21.570Z,100815.53
2019-05-26T10:45:50.754Z,100818.83
2019-05-26T10:48:20.029Z,100821.05
2019-05-26T10:50:49.237Z,100820.49
2019-05-26T10:53:18.492Z,100822.62
2019-05-26T10:55:47.782Z,100828.34
2019-05-26T10:58:16.933Z,100812.17
2019-05-26T11:00:46.161Z,100808.76
2019-05-26T11:03:15.299Z,100802.13
2019-05-26T11:05:44.501Z,100806.05
2019-05-26T11:08:13.784Z,100798.98
2019-05-26T11:10:43.956Z,100794.30
2019-05-26T11:13:13.177Z,100799.75
2019-05-26T11:15:42.434Z,100796.39
2019-05-26T11:18:11.736Z,100791.45
2019-05-26T11:20:41.068Z,100795.08
2019-05-26T11:23:10.256Z,100800.78
2019-05-26T11:25:39.503Z,100798.36
2019-05-26T11:28:08.760Z,100798.75
2019-05-26T11:30:38.175Z,100807.31
2019-05-26T11:33:07.355Z,100800.22
2019-05-26T11:35:36.632Z,100790.86
2019-05-26T11:38:05.891Z,100797.41
2019-05-26T11:40:35.239Z,100800.66
2019-05-26T11:43:16.400Z,100794.83
2019-05-26T11:45:35.397Z,100797.52
2019-05-26T11:48:04.882Z,100805.63
2019-05-26T11:50:34.015Z,100787.83
2019-05-26T11:53:03.242Z,100793.22
2019-05-26T11:55:32.445Z,100785.22
2019-05-26T11:58:01.641Z,100788.73
2019-05-26T12:00:31.237Z,100784.23
2019-05-26T12:03:00.652Z,100773.66
2019-05-26T12:05:29.949Z,100764.84
2019-05-26T12:07:59.175Z,100764.52
2019-05-26T12:10:28.313Z,100754.41
2019-05-26T12:12:57.538Z,100755.76
2019-05-26T12:15:26.802Z,100749.69
2019-05-26T12:17:55.968Z,100753.94
2019-05-26T12:20:25.094Z,100750.50
2019-05-26T12:22:54.299Z,100746.94
2019-05-26T12:25:23.483Z,100751.97
2019-05-26T12:27:52.660Z,100749.55
2019-05-26T12:30:21.856Z,100747.89
2019-05-26T12:32:51.098Z,100753.56
2019-05-26T12:35:20.216Z,100750.16
2019-05-26T12:37:49.429Z,100742.93
2019-05-26T12:40:19.465Z,100736.73
2019-05-26T12:42:48.650Z,100745.23
2019-05-26T12:45:17.984Z,100730.55
2019-05-26T12:47:47.279Z,100732.27
2019-05-26T12:50:16.624Z,100733.66
2019-05-26T12:52:45.958Z,100724.98
2019-05-26T12:55:16.547Z,100714.70
2019-05-26T12:57:45.786Z,100710.56
2019-05-26T13:00:15.058Z,100720.12
2019-05-26T13:02:44.313Z,100713.55
2019-05-26T13:05:13.585Z,100702.72
2019-05-26T13:07:42.767Z,100702.23
2019-05-26T13:10:12.108Z,100699.73
2019-05-26T13:12:41.275Z,100694.00
2019-05-26T13:15:10.845Z,100693.94
2019-05-26T13:17:40.100Z,100688.41
2019-05-26T13:20:12.072Z,100696.95
2019-05-26T13:22:41.302Z,100671.86
2019-05-26T13:25:11.141Z,100684.85
2019-05-26T13:27:40.244Z,100664.44
2019-05-26T13:30:10.162Z,100669.77
2019-05-26T13:32:39.324Z,100662.78
2019-05-26T13:35:08.592Z,100667.56
2019-05-26T13:37:37.701Z,100676.70
2019-05-26T13:40:07.645Z,100679.90
2019-05-26T13:42:37.294Z,100669.63
2019-05-26T13:45:21.243Z,100664.80
2019-05-26T13:47:37.988Z,100668.15
2019-05-26T13:50:07.850Z,100662.57
2019-05-26T13:52:36.986Z,100668.17
2019-05-26T13:55:06.758Z,100660.44
2019-05-26T13:57:36.021Z,100652.20
2019-05-26T14:00:05.927Z,100647.41
2019-05-26T14:02:36.466Z,100645.89
2019-05-26T14:05:06.318Z,100647.00
2019-05-26T14:07:35.490Z,100651.48
2019-05-26T14:10:04.818Z,100657.55
2019-05-26T14:12:33.961Z,100656.01
2019-05-26T14:15:03.191Z,100640.05
2019-05-26T14:17:33.381Z,100644.04
2019-05-26T14:20:04.455Z,100628.57
2019-05-26T14:22:33.698Z,100636.19
2019-05-26T14:25:02.902Z,100645.51
2019-05-26T14:27:32.067Z,100626.78
2019-05-26T14:30:01.231Z,100636.03
2019-05-26T14:32:30.390Z,100635.24
2019-05-26T14:34:59.551Z,100629.47
2019-05-26T14:37:28.623Z,100625.36
2019-05-26T14:39:57.752Z,100630.34
2019-05-26T14:42:26.959Z,100626.45
2019-05-26T14:44:56.201Z,100635.27
2019-05-26T14:47:25.307Z,100617.89
2019-05-26T14:49:54.497Z,100624.94
2019-05-26T14:52:23.674Z,100626.89
2019-05-26T14:54:52.807Z,100620.95
2019-05-26T14:57:21.935Z,100611.33
2019-05-26T14:59:51.288Z,100612.80
2019-05-26T15:02:20.435Z,100638.62
2019-05-26T15:04:49.568Z,100609.23
2019-05-26T15:07:18.759Z,100599.59
2019-05-26T15:09:47.940Z,100605.24
2019-05-26T15:12:17.055Z,100603.98
2019-05-26T15:14:46.243Z,100612.26
2019-05-26T15:17:15.436Z,100607.70
2019-05-26T15:19:45.001Z,100597.84
2019-05-26T15:22:15.089Z,100604.02
2019-05-26T15:24:44.339Z,100601.39
2019-05-26T15:27:13.557Z,100601.57
2019-05-26T15:29:42.701Z,100601.28
2019-05-26T15:32:11.956Z,100592.59
2019-05-26T15:34:41.058Z,100588.45
2019-05-26T15:37:10.246Z,100590.67
2019-05-26T15:39:39.409Z,100586.25
2019-05-26T15:42:08.619Z,100582.48
2019-05-26T15:44:37.745Z,100571.30
2019-05-26T15:47:06.962Z,100579.22
2019-05-26T15:49:36.122Z,100579.48
2019-05-26T15:52:05.230Z,100582.73
2019-05-26T15:54:35.442Z,100571.05
2019-05-26T15:57:04.615Z,100578.31
2019-05-26T15:59:33.872Z,100564.08
2019-05-26T16:02:03.073Z,100553.38
2019-05-26T16:04:32.298Z,100561.60
2019-05-26T16:07:01.407Z,100569.08
2019-05-26T16:09:30.636Z,100571.45
2019-05-26T16:12:00.011Z,100579.69
2019-05-26T16:14:29.123Z,100571.67
2019-05-26T16:16:58.346Z,100564.06
2019-05-26T16:19:27.466Z,100559.77
2019-05-26T16:21:57.862Z,100557.69
2019-05-26T16:24:27.083Z,100569.17
2019-05-26T16:26:56.325Z,100562.65
2019-05-26T16:29:26.529Z,100565.41
2019-05-26T16:31:56.001Z,100561.86
2019-05-26T16:34:25.135Z,100573.55
2019-05-26T16:36:54.307Z,100557.26
2019-05-26T16:39:36.134Z,100556.80
2019-05-26T16:41:54.586Z,100552.25
2019-05-26T16:44:23.682Z,100546.83
2019-05-26T16:46:56.438Z,100547.70
2019-05-26T16:49:23.800Z,100551.17
2019-05-26T16:51:52.977Z,100553.30
2019-05-26T16:54:22.124Z,100558.77
2019-05-26T16:56:51.278Z,100555.17
2019-05-26T16:59:20.527Z,100551.70
2019-05-26T17:01:49.770Z,100554.77
2019-05-26T17:04:18.975Z,100549.73
2019-05-26T17:06:48.177Z,100551.12
2019-05-26T17:09:17.322Z,100551.91
2019-05-26T17:11:46.603Z,100547.53
2019-05-26T17:14:15.772Z,100546.57
2019-05-26T17:16:44.910Z,100542.11
2019-05-26T17:19:14.064Z,100546.91
2019-05-26T17:34:40.813Z,100528.50
2019-05-26T17:37:07.859Z,100543.47
2019-05-26T17:39:35.165Z,100538.59
2019-05-26T17:42:02.272Z,100538.05
2019-05-26T17:44:30.642Z,100540.72
2019-05-26T17:46:57.399Z,100539.34
2019-05-26T17:49:24.045Z,100533.58
2019-05-26T17:51:51.171Z,100532.17
2019-05-26T17:54:18.326Z,100532.41
2019-05-26T17:56:45.166Z,100533.16
2019-05-26T17:59:11.928Z,100526.14
2019-05-26T18:01:38.990Z,100528.43
2019-05-26T18:04:05.804Z,100528.09
2019-05-26T18:06:33.008Z,100531.30
2019-05-26T18:08:59.899Z,100527.50
2019-05-26T18:11:27.036Z,100523.16
2019-05-26T18:13:53.992Z,100529.53
2019-05-26T18:16:21.042Z,100527.25
2019-05-26T18:18:47.886Z,100532.33
2019-05-26T18:21:15.247Z,100530.31
2019-05-26T18:23:42.111Z,100531.31
2019-05-26T18:26:09.238Z,100531.77
2019-05-26T18:28:36.936Z,100531.77
2019-05-26T18:31:03.944Z,100530.98
2019-05-26T18:33:31.470Z,100533.39
2019-05-26T18:35:58.970Z,100539.26
2019-05-26T18:38:26.018Z,100533.13
2019-05-26T18:40:53.010Z,100537.55
2019-05-26T18:43:20.029Z,100535.41
2019-05-26T18:45:46.852Z,100535.41
2019-05-26T18:48:14.831Z,100540.33
2019-05-26T18:50:41.701Z,100540.75
2019-05-26T18:53:08.745Z,100539.20
2019-05-26T18:55:35.695Z,100546.63
2019-05-26T18:58:03.112Z,100545.59
2019-05-26T19:00:31.415Z,100552.88
2019-05-26T19:02:58.339Z,100543.42
2019-05-26T19:05:33.652Z,100547.02
2019-05-26T19:07:54.017Z,100548.42
2019-05-26T19:10:20.969Z,100542.82
2019-05-26T19:12:48.280Z,100547.28
2019-05-26T19:15:16.343Z,100552.23
2019-05-26T19:17:43.117Z,100552.31
2019-05-26T19:20:16.110Z,100556.31
2019-05-26T19:22:38.952Z,100549.83
2019-05-26T19:25:06.512Z,100551.28
2019-05-26T19:27:33.216Z,100553.95
2019-05-26T19:30:00.112Z,100548.34
2019-05-26T19:32:27.359Z,100549.11
2019-05-26T19:34:54.400Z,100553.36
2019-05-26T19:37:21.462Z,100553.41
2019-05-26T19:39:48.778Z,100543.54
2019-05-26T19:42:15.948Z,100534.35
2019-05-26T19:44:42.873Z,100544.48
2019-05-26T19:47:09.722Z,100549.48
2019-05-26T19:49:36.697Z,100541.02
2019-05-26T19:52:03.600Z,100541.94
2019-05-26T19:54:30.659Z,100546.69
2019-05-26T19:56:58.101Z,100546.34
2019-05-26T19:59:24.968Z,100544.59
2019-05-26T20:01:52.005Z,100538.14
2019-05-26T20:04:19.100Z,100534.60
2019-05-26T20:06:45.744Z,100533.00
2019-05-26T20:09:16.473Z,100532.03
2019-05-26T20:11:43.616Z,100538.80
2019-05-26T20:14:12.908Z,100532.56
2019-05-26T20:16:39.835Z,100541.13
2019-05-26T20:19:06.819Z,100543.48
2019-05-26T20:21:34.120Z,100542.67
2019-05-26T20:24:01.104Z,100544.84
2019-05-26T20:26:28.168Z,100545.31
2019-05-26T20:28:55.896Z,100542.23
2019-05-26T20:31:23.040Z,100539.70
2019-05-26T20:33:49.936Z,100540.44
2019-05-26T20:36:16.977Z,100547.17
2019-05-26T20:38:43.818Z,100543.20
2019-05-26T20:41:11.123Z,100542.89
2019-05-26T20:43:38.369Z,100549.55
2019-05-26T20:46:05.316Z,100547.80
2019-05-26T20:48:32.180Z,100550.08
2019-05-26T20:50:58.828Z,100549.55
2019-05-26T20:53:26.260Z,100549.06
2019-05-26T20:55:53.541Z,100547.06
2019-05-26T20:58:20.560Z,100553.52
2019-05-26T21:00:47.817Z,100549.03
2019-05-26T21:03:14.658Z,100550.57
2019-05-26T21:05:41.970Z,100552.29
2019-05-26T21:08:08.963Z,100551.48
2019-05-26T21:10:36.208Z,100548.02
2019-05-26T21:13:03.052Z,100555.09
2019-05-26T21:15:30.159Z,100544.72
2019-05-26T21:17:56.969Z,100548.20
2019-05-26T21:20:24.127Z,100549.22
2019-05-26T21:22:50.996Z,100548.73
2019-05-26T21:25:19.018Z,100542.66
2019-05-26T21:27:46.059Z,100547.40
2019-05-26T21:30:13.210Z,100551.01
2019-05-26T21:32:40.084Z,100547.61
2019-05-26T21:35:07.306Z,100544.80
2019-05-26T21:37:34.024Z,100547.25
2019-05-26T21:40:00.993Z,100547.64
2019-05-26T21:42:27.673Z,100552.16
2019-05-26T21:44:54.504Z,100549.86
2019-05-26T21:47:21.482Z,100544.02
2019-05-26T21:49:48.372Z,100544.30
2019-05-26T21:52:15.316Z,100542.52
2019-05-26T21:54:42.219Z,100544.60
2019-05-26T21:57:09.117Z,100545.25
2019-05-26T21:59:35.932Z,100536.27
2019-05-26T22:02:02.745Z,100536.81
2019-05-26T22:04:29.836Z,100536.39
2019-05-26T22:06:56.911Z,100533.09
2019-05-26T22:09:24.164Z,100534.55
2019-05-26T22:11:51.113Z,100528.25
2019-05-26T22:14:18.028Z,100533.09
2019-05-26T22:16:45.905Z,100530.66
2019-05-26T22:19:12.930Z,100530.62
2019-05-26T22:21:39.579Z,100530.27
2019-05-26T22:24:06.573Z,100528.29
2019-05-26T22:26:33.643Z,100526.31
2019-05-26T22:29:00.626Z,100520.38
2019-05-26T22:31:27.326Z,100516.09
2019-05-26T22:33:54.278Z,100514.85
2019-05-26T22:36:21.002Z,100516.83
2019-05-26T22:38:47.896Z,100508.04
2019-05-26T22:41:14.651Z,100507.81
2019-05-26T22:43:41.206Z,100501.84
2019-05-26T22:46:07.991Z,100500.12
2019-05-26T22:48:35.065Z,100492.59
2019-05-26T22:51:02.237Z,100495.91
2019-05-26T22:53:29.369Z,100488.61
2019-05-26T22:55:56.446Z,100485.13
2019-05-26T22:58:23.258Z,100486.30
2019-05-26T23:00:49.953Z,100481.37
2019-05-26T23:03:16.694Z,100488.15
2019-05-26T23:05:43.565Z,100481.83
2019-05-26T23:08:10.289Z,100480.46
2019-05-26T23:10:37.540Z,100480.63
2019-05-26T23:13:04.547Z,100473.23
2019-05-26T23:15:31.545Z,100476.11
2019-05-26T23:17:58.364Z,100474.52
2019-05-26T23:20:25.114Z,100472.13
2019-05-26T23:22:52.254Z,100477.17
2019-05-26T23:25:19.480Z,100473.83
2019-05-26T23:27:46.406Z,100470.45
2019-05-26T23:30:13.430Z,100471.78
2019-05-26T23:32:40.181Z,100476.78
2019-05-26T23:35:07.374Z,100469.31
2019-05-26T23:37:34.187Z,100468.67
2019-05-26T23:40:01.559Z,100460.18
2019-05-26T23:42:28.382Z,100461.21
2019-05-26T23:44:55.058Z,100460.40
2019-05-26T23:47:22.099Z,100462.02
2019-05-26T23:49:48.888Z,100453.73
2019-05-26T23:52:19.210Z,100463.38
2019-05-26T23:54:44.447Z,100460.50
2019-05-26T23:57:11.390Z,100461.08
2019-05-26T23:59:38.103Z,100453.20
